sensor_id;sensor_type;location;lat;lon;timestamp;P1;durP1;ratioP1;P2;durP2;ratioP2
76380;SDS011;65202;52.520;10.528;2023-04-03T00:01:14;7.85;;;2.03;;
76380;SDS011;65202;52.520;10.528;2023-04-03T00:03:42;5.60;;;1.90;;
76380;SDS011;65202;52.520;10.528;2023-04-03T00:06:10;9.52;;;2.13;;
76380;SDS011;65202;52.520;10.528;2023-04-03T00:08:38;8.13;;;1.98;;
76380;SDS011;65202;52.520;10.528;2023-04-03T00:11:07;7.95;;;2.60;;
76380;SDS011;65202;52.520;10.528;2023-04-03T00:13:35;11.93;;;2.38;;
76380;SDS011;65202;52.520;10.528;2023-04-03T00:16:04;5.15;;;2.03;;
76380;SDS011;65202;52.520;10.528;2023-04-03T00:18:32;10.48;;;2.28;;
76380;SDS011;65202;52.520;10.528;2023-04-03T00:20:59;6.82;;;2.28;;
76380;SDS011;65202;52.520;10.528;2023-04-03T00:23:27;9.93;;;2.20;;
76380;SDS011;65202;52.520;10.528;2023-04-03T00:25:54;9.55;;;1.92;;
76380;SDS011;65202;52.520;10.528;2023-04-03T00:28:22;8.90;;;1.92;;
76380;SDS011;65202;52.520;10.528;2023-04-03T00:30:49;6.60;;;2.15;;
76380;SDS011;65202;52.520;10.528;2023-04-03T00:33:17;9.25;;;1.92;;
76380;SDS011;65202;52.520;10.528;2023-04-03T00:35:48;10.48;;;1.83;;
76380;SDS011;65202;52.520;10.528;2023-04-03T00:38:16;9.30;;;1.80;;
76380;SDS011;65202;52.520;10.528;2023-04-03T00:40:45;9.70;;;2.45;;
76380;SDS011;65202;52.520;10.528;2023-04-03T00:43:19;9.55;;;1.83;;
76380;SDS011;65202;52.520;10.528;2023-04-03T00:45:51;10.55;;;1.90;;
76380;SDS011;65202;52.520;10.528;2023-04-03T00:48:32;7.10;;;1.80;;
76380;SDS011;65202;52.520;10.528;2023-04-03T00:51:16;7.82;;;1.98;;
76380;SDS011;65202;52.520;10.528;2023-04-03T00:53:51;10.02;;;1.65;;
76380;SDS011;65202;52.520;10.528;2023-04-03T00:56:25;7.50;;;1.65;;
76380;SDS011;65202;52.520;10.528;2023-04-03T00:59:07;10.70;;;2.20;;
76380;SDS011;65202;52.520;10.528;2023-04-03T01:01:38;8.18;;;1.80;;
76380;SDS011;65202;52.520;10.528;2023-04-03T01:04:24;7.72;;;2.08;;
76380;SDS011;65202;52.520;10.528;2023-04-03T01:07:02;11.88;;;2.03;;
76380;SDS011;65202;52.520;10.528;2023-04-03T01:09:34;8.15;;;1.90;;
76380;SDS011;65202;52.520;10.528;2023-04-03T01:12:22;8.57;;;1.95;;
76380;SDS011;65202;52.520;10.528;2023-04-03T01:14:57;12.45;;;1.88;;
76380;SDS011;65202;52.520;10.528;2023-04-03T01:17:36;8.63;;;2.08;;
76380;SDS011;65202;52.520;10.528;2023-04-03T01:33:46;5.82;;;2.00;;
76380;SDS011;65202;52.520;10.528;2023-04-03T01:36:15;9.15;;;2.47;;
76380;SDS011;65202;52.520;10.528;2023-04-03T01:38:47;8.93;;;1.73;;
76380;SDS011;65202;52.520;10.528;2023-04-03T01:41:15;8.40;;;2.00;;
76380;SDS011;65202;52.520;10.528;2023-04-03T01:43:43;10.43;;;2.15;;
76380;SDS011;65202;52.520;10.528;2023-04-03T01:46:10;9.75;;;2.15;;
76380;SDS011;65202;52.520;10.528;2023-04-03T01:48:38;10.55;;;1.80;;
76380;SDS011;65202;52.520;10.528;2023-04-03T01:51:05;10.07;;;2.28;;
76380;SDS011;65202;52.520;10.528;2023-04-03T01:53:32;10.63;;;2.25;;
76380;SDS011;65202;52.520;10.528;2023-04-03T01:55:59;7.97;;;1.90;;
76380;SDS011;65202;52.520;10.528;2023-04-03T01:58:27;10.18;;;1.70;;
76380;SDS011;65202;52.520;10.528;2023-04-03T02:00:54;11.68;;;1.95;;
76380;SDS011;65202;52.520;10.528;2023-04-03T02:03:21;9.63;;;1.90;;
76380;SDS011;65202;52.520;10.528;2023-04-03T02:05:49;5.57;;;1.60;;
76380;SDS011;65202;52.520;10.528;2023-04-03T02:08:16;9.32;;;2.17;;
76380;SDS011;65202;52.520;10.528;2023-04-03T02:10:47;7.13;;;2.30;;
76380;SDS011;65202;52.520;10.528;2023-04-03T02:13:16;10.43;;;3.72;;
76380;SDS011;65202;52.520;10.528;2023-04-03T02:15:45;11.98;;;3.35;;
76380;SDS011;65202;52.520;10.528;2023-04-03T02:18:12;17.17;;;3.05;;
76380;SDS011;65202;52.520;10.528;2023-04-03T02:20:40;9.35;;;2.20;;
76380;SDS011;65202;52.520;10.528;2023-04-03T02:23:07;11.02;;;2.25;;
76380;SDS011;65202;52.520;10.528;2023-04-03T02:25:35;5.88;;;2.00;;
76380;SDS011;65202;52.520;10.528;2023-04-03T02:28:04;8.82;;;2.00;;
76380;SDS011;65202;52.520;10.528;2023-04-03T02:30:32;10.07;;;1.83;;
76380;SDS011;65202;52.520;10.528;2023-04-03T02:33:00;5.65;;;2.30;;
76380;SDS011;65202;52.520;10.528;2023-04-03T02:35:27;12.43;;;2.08;;
76380;SDS011;65202;52.520;10.528;2023-04-03T02:37:54;6.72;;;1.88;;
76380;SDS011;65202;52.520;10.528;2023-04-03T02:40:22;10.35;;;1.80;;
76380;SDS011;65202;52.520;10.528;2023-04-03T02:42:49;10.10;;;2.10;;
76380;SDS011;65202;52.520;10.528;2023-04-03T02:45:16;15.02;;;1.90;;
76380;SDS011;65202;52.520;10.528;2023-04-03T02:47:43;9.90;;;2.03;;
76380;SDS011;65202;52.520;10.528;2023-04-03T02:50:11;10.50;;;2.13;;
76380;SDS011;65202;52.520;10.528;2023-04-03T02:52:38;10.68;;;2.10;;
76380;SDS011;65202;52.520;10.528;2023-04-03T02:55:05;10.82;;;2.10;;
76380;SDS011;65202;52.520;10.528;2023-04-03T02:57:33;14.02;;;2.53;;
76380;SDS011;65202;52.520;10.528;2023-04-03T03:00:01;8.95;;;1.88;;
76380;SDS011;65202;52.520;10.528;2023-04-03T03:02:28;9.70;;;2.00;;
76380;SDS011;65202;52.520;10.528;2023-04-03T03:04:55;14.43;;;2.20;;
76380;SDS011;65202;52.520;10.528;2023-04-03T03:07:23;10.88;;;2.30;;
76380;SDS011;65202;52.520;10.528;2023-04-03T03:09:50;12.05;;;2.40;;
76380;SDS011;65202;52.520;10.528;2023-04-03T03:12:17;10.77;;;2.53;;
76380;SDS011;65202;52.520;10.528;2023-04-03T03:14:48;10.15;;;2.30;;
76380;SDS011;65202;52.520;10.528;2023-04-03T03:17:15;10.68;;;2.03;;
76380;SDS011;65202;52.520;10.528;2023-04-03T03:19:43;12.93;;;2.25;;
76380;SDS011;65202;52.520;10.528;2023-04-03T03:22:12;11.52;;;2.50;;
76380;SDS011;65202;52.520;10.528;2023-04-03T03:24:39;9.35;;;2.47;;
76380;SDS011;65202;52.520;10.528;2023-04-03T03:27:06;11.82;;;2.35;;
76380;SDS011;65202;52.520;10.528;2023-04-03T03:29:34;9.73;;;2.00;;
76380;SDS011;65202;52.520;10.528;2023-04-03T03:32:01;9.73;;;2.20;;
76380;SDS011;65202;52.520;10.528;2023-04-03T03:34:28;10.43;;;1.90;;
76380;SDS011;65202;52.520;10.528;2023-04-03T03:36:57;7.80;;;2.08;;
76380;SDS011;65202;52.520;10.528;2023-04-03T03:39:24;12.88;;;2.78;;
76380;SDS011;65202;52.520;10.528;2023-04-03T03:41:52;16.05;;;2.17;;
76380;SDS011;65202;52.520;10.528;2023-04-03T03:44:20;14.60;;;2.00;;
76380;SDS011;65202;52.520;10.528;2023-04-03T03:46:48;15.85;;;2.35;;
76380;SDS011;65202;52.520;10.528;2023-04-03T03:49:15;14.32;;;2.50;;
76380;SDS011;65202;52.520;10.528;2023-04-03T03:51:42;13.23;;;2.55;;
76380;SDS011;65202;52.520;10.528;2023-04-03T03:54:09;10.68;;;2.03;;
76380;SDS011;65202;52.520;10.528;2023-04-03T03:56:37;13.30;;;2.60;;
76380;SDS011;65202;52.520;10.528;2023-04-03T03:59:04;8.43;;;2.05;;
76380;SDS011;65202;52.520;10.528;2023-04-03T04:01:32;9.70;;;1.95;;
76380;SDS011;65202;52.520;10.528;2023-04-03T04:03:59;11.65;;;2.20;;
76380;SDS011;65202;52.520;10.528;2023-04-03T04:06:27;14.77;;;2.53;;
76380;SDS011;65202;52.520;10.528;2023-04-03T04:08:54;11.50;;;2.10;;
76380;SDS011;65202;52.520;10.528;2023-04-03T04:11:21;11.02;;;2.28;;
76380;SDS011;65202;52.520;10.528;2023-04-03T04:13:49;9.77;;;2.50;;
76380;SDS011;65202;52.520;10.528;2023-04-03T04:16:16;6.35;;;2.13;;
76380;SDS011;65202;52.520;10.528;2023-04-03T04:18:43;7.65;;;2.22;;
76380;SDS011;65202;52.520;10.528;2023-04-03T04:21:10;10.43;;;2.22;;
76380;SDS011;65202;52.520;10.528;2023-04-03T04:23:37;8.05;;;2.45;;
76380;SDS011;65202;52.520;10.528;2023-04-03T04:26:05;7.38;;;1.95;;
76380;SDS011;65202;52.520;10.528;2023-04-03T04:28:32;10.68;;;2.20;;
76380;SDS011;65202;52.520;10.528;2023-04-03T04:30:59;10.75;;;2.20;;
76380;SDS011;65202;52.520;10.528;2023-04-03T04:33:27;9.02;;;2.33;;
76380;SDS011;65202;52.520;10.528;2023-04-03T04:35:54;12.40;;;2.80;;
76380;SDS011;65202;52.520;10.528;2023-04-03T04:38:23;9.38;;;2.22;;
76380;SDS011;65202;52.520;10.528;2023-04-03T04:40:50;15.45;;;2.80;;
76380;SDS011;65202;52.520;10.528;2023-04-03T04:43:17;14.43;;;2.55;;
76380;SDS011;65202;52.520;10.528;2023-04-03T04:45:44;14.27;;;2.30;;
76380;SDS011;65202;52.520;10.528;2023-04-03T04:48:12;12.30;;;2.60;;
76380;SDS011;65202;52.520;10.528;2023-04-03T04:50:39;14.18;;;3.75;;
76380;SDS011;65202;52.520;10.528;2023-04-03T04:53:06;19.85;;;5.03;;
76380;SDS011;65202;52.520;10.528;2023-04-03T04:55:33;16.40;;;5.63;;
76380;SDS011;65202;52.520;10.528;2023-04-03T04:58:01;51.70;;;14.68;;
76380;SDS011;65202;52.520;10.528;2023-04-03T05:00:28;14.55;;;4.18;;
76380;SDS011;65202;52.520;10.528;2023-04-03T05:02:55;13.45;;;2.72;;
76380;SDS011;65202;52.520;10.528;2023-04-03T05:05:22;10.55;;;2.42;;
76380;SDS011;65202;52.520;10.528;2023-04-03T05:07:50;11.25;;;2.50;;
76380;SDS011;65202;52.520;10.528;2023-04-03T05:10:17;11.57;;;2.30;;
76380;SDS011;65202;52.520;10.528;2023-04-03T05:12:44;12.90;;;2.38;;
76380;SDS011;65202;52.520;10.528;2023-04-03T05:15:11;6.75;;;2.42;;
76380;SDS011;65202;52.520;10.528;2023-04-03T05:17:38;7.95;;;2.60;;
76380;SDS011;65202;52.520;10.528;2023-04-03T05:20:06;14.55;;;2.55;;
76380;SDS011;65202;52.520;10.528;2023-04-03T05:22:35;15.57;;;2.10;;
76380;SDS011;65202;52.520;10.528;2023-04-03T05:25:02;10.60;;;2.22;;
76380;SDS011;65202;52.520;10.528;2023-04-03T05:27:30;15.50;;;4.90;;
76380;SDS011;65202;52.520;10.528;2023-04-03T05:29:57;14.38;;;4.20;;
76380;SDS011;65202;52.520;10.528;2023-04-03T05:32:26;13.13;;;4.80;;
76380;SDS011;65202;52.520;10.528;2023-04-03T05:34:54;11.35;;;3.35;;
76380;SDS011;65202;52.520;10.528;2023-04-03T05:37:21;10.90;;;2.70;;
76380;SDS011;65202;52.520;10.528;2023-04-03T05:39:49;10.35;;;2.50;;
76380;SDS011;65202;52.520;10.528;2023-04-03T05:42:16;10.60;;;2.40;;
76380;SDS011;65202;52.520;10.528;2023-04-03T05:44:43;13.02;;;2.53;;
76380;SDS011;65202;52.520;10.528;2023-04-03T05:47:12;13.60;;;2.90;;
76380;SDS011;65202;52.520;10.528;2023-04-03T05:49:40;7.90;;;2.17;;
76380;SDS011;65202;52.520;10.528;2023-04-03T05:52:21;11.10;;;2.55;;
76380;SDS011;65202;52.520;10.528;2023-04-03T05:54:53;12.93;;;2.33;;
76380;SDS011;65202;52.520;10.528;2023-04-03T05:57:21;10.77;;;2.80;;
76380;SDS011;65202;52.520;10.528;2023-04-03T05:59:49;9.48;;;2.80;;
76380;SDS011;65202;52.520;10.528;2023-04-03T06:02:18;7.75;;;2.50;;
76380;SDS011;65202;52.520;10.528;2023-04-03T06:04:48;8.95;;;2.50;;
76380;SDS011;65202;52.520;10.528;2023-04-03T06:07:17;10.85;;;2.25;;
76380;SDS011;65202;52.520;10.528;2023-04-03T06:09:48;8.70;;;2.40;;
76380;SDS011;65202;52.520;10.528;2023-04-03T06:12:18;9.85;;;3.70;;
76380;SDS011;65202;52.520;10.528;2023-04-03T06:14:45;16.67;;;6.13;;
76380;SDS011;65202;52.520;10.528;2023-04-03T06:17:13;9.55;;;3.70;;
76380;SDS011;65202;52.520;10.528;2023-04-03T06:19:43;9.95;;;3.22;;
76380;SDS011;65202;52.520;10.528;2023-04-03T06:22:11;9.88;;;3.38;;
76380;SDS011;65202;52.520;10.528;2023-04-03T06:24:39;7.70;;;2.50;;
76380;SDS011;65202;52.520;10.528;2023-04-03T06:27:07;11.73;;;2.50;;
76380;SDS011;65202;52.520;10.528;2023-04-03T06:29:34;8.85;;;2.17;;
76380;SDS011;65202;52.520;10.528;2023-04-03T06:32:01;9.50;;;2.40;;
76380;SDS011;65202;52.520;10.528;2023-04-03T06:34:29;8.45;;;2.20;;
76380;SDS011;65202;52.520;10.528;2023-04-03T06:36:56;7.05;;;2.22;;
76380;SDS011;65202;52.520;10.528;2023-04-03T06:39:23;7.78;;;2.08;;
76380;SDS011;65202;52.520;10.528;2023-04-03T06:41:51;11.38;;;2.17;;
76380;SDS011;65202;52.520;10.528;2023-04-03T06:44:18;9.15;;;2.05;;
76380;SDS011;65202;52.520;10.528;2023-04-03T06:46:46;7.97;;;2.17;;
76380;SDS011;65202;52.520;10.528;2023-04-03T06:49:13;7.82;;;2.30;;
76380;SDS011;65202;52.520;10.528;2023-04-03T06:51:41;6.13;;;2.13;;
76380;SDS011;65202;52.520;10.528;2023-04-03T06:54:08;5.60;;;1.55;;
76380;SDS011;65202;52.520;10.528;2023-04-03T06:56:36;6.72;;;2.10;;
76380;SDS011;65202;52.520;10.528;2023-04-03T06:59:03;6.07;;;2.10;;
76380;SDS011;65202;52.520;10.528;2023-04-03T07:01:31;7.72;;;2.13;;
76380;SDS011;65202;52.520;10.528;2023-04-03T07:03:58;6.00;;;2.03;;
76380;SDS011;65202;52.520;10.528;2023-04-03T07:06:26;7.00;;;1.83;;
76380;SDS011;65202;52.520;10.528;2023-04-03T07:08:54;7.35;;;2.03;;
76380;SDS011;65202;52.520;10.528;2023-04-03T07:11:22;10.20;;;2.00;;
76380;SDS011;65202;52.520;10.528;2023-04-03T07:13:49;6.28;;;1.85;;
76380;SDS011;65202;52.520;10.528;2023-04-03T07:16:17;7.07;;;1.95;;
76380;SDS011;65202;52.520;10.528;2023-04-03T07:18:45;7.70;;;1.95;;
76380;SDS011;65202;52.520;10.528;2023-04-03T07:21:13;9.25;;;2.00;;
76380;SDS011;65202;52.520;10.528;2023-04-03T07:23:40;7.80;;;2.00;;
76380;SDS011;65202;52.520;10.528;2023-04-03T07:26:08;6.82;;;1.92;;
76380;SDS011;65202;52.520;10.528;2023-04-03T07:28:35;4.85;;;1.50;;
76380;SDS011;65202;52.520;10.528;2023-04-03T07:31:04;6.22;;;1.52;;
76380;SDS011;65202;52.520;10.528;2023-04-03T07:33:40;9.50;;;1.92;;
76380;SDS011;65202;52.520;10.528;2023-04-03T07:36:09;4.78;;;1.60;;
76380;SDS011;65202;52.520;10.528;2023-04-03T07:38:41;7.47;;;1.75;;
76380;SDS011;65202;52.520;10.528;2023-04-03T07:41:11;7.22;;;1.80;;
76380;SDS011;65202;52.520;10.528;2023-04-03T07:43:42;5.32;;;1.88;;
76380;SDS011;65202;52.520;10.528;2023-04-03T07:46:09;5.85;;;2.05;;
76380;SDS011;65202;52.520;10.528;2023-04-03T07:48:37;6.80;;;2.10;;
76380;SDS011;65202;52.520;10.528;2023-04-03T07:51:04;6.47;;;1.80;;
76380;SDS011;65202;52.520;10.528;2023-04-03T07:53:32;5.65;;;1.60;;
76380;SDS011;65202;52.520;10.528;2023-04-03T07:56:00;6.28;;;1.63;;
76380;SDS011;65202;52.520;10.528;2023-04-03T07:58:30;6.43;;;1.75;;
76380;SDS011;65202;52.520;10.528;2023-04-03T08:00:57;7.75;;;2.10;;
76380;SDS011;65202;52.520;10.528;2023-04-03T08:03:24;5.60;;;1.73;;
76380;SDS011;65202;52.520;10.528;2023-04-03T08:05:52;4.97;;;2.42;;
76380;SDS011;65202;52.520;10.528;2023-04-03T08:08:21;6.55;;;2.83;;
76380;SDS011;65202;52.520;10.528;2023-04-03T08:10:50;7.18;;;2.03;;
76380;SDS011;65202;52.520;10.528;2023-04-03T08:13:20;5.53;;;2.53;;
76380;SDS011;65202;52.520;10.528;2023-04-03T08:15:48;6.70;;;2.80;;
76380;SDS011;65202;52.520;10.528;2023-04-03T08:18:16;5.95;;;2.13;;
76380;SDS011;65202;52.520;10.528;2023-04-03T08:20:45;4.60;;;1.70;;
76380;SDS011;65202;52.520;10.528;2023-04-03T08:23:12;2.42;;;1.23;;
76380;SDS011;65202;52.520;10.528;2023-04-03T08:25:41;6.40;;;1.73;;
76380;SDS011;65202;52.520;10.528;2023-04-03T08:28:10;3.72;;;1.60;;
76380;SDS011;65202;52.520;10.528;2023-04-03T08:30:39;5.55;;;1.63;;
76380;SDS011;65202;52.520;10.528;2023-04-03T08:33:09;4.53;;;1.45;;
76380;SDS011;65202;52.520;10.528;2023-04-03T08:35:40;4.88;;;1.88;;
76380;SDS011;65202;52.520;10.528;2023-04-03T08:38:09;3.97;;;1.73;;
76380;SDS011;65202;52.520;10.528;2023-04-03T08:40:37;4.25;;;1.90;;
76380;SDS011;65202;52.520;10.528;2023-04-03T08:46:03;4.15;;;2.05;;
76380;SDS011;65202;52.520;10.528;2023-04-03T08:48:41;4.10;;;2.13;;
76380;SDS011;65202;52.520;10.528;2023-04-03T08:51:17;4.22;;;2.10;;
76380;SDS011;65202;52.520;10.528;2023-04-03T08:53:58;3.40;;;1.70;;
76380;SDS011;65202;52.520;10.528;2023-04-03T08:56:34;4.45;;;1.50;;
76380;SDS011;65202;52.520;10.528;2023-04-03T08:59:06;3.72;;;1.48;;
76380;SDS011;65202;52.520;10.528;2023-04-03T09:01:53;3.70;;;1.67;;
76380;SDS011;65202;52.520;10.528;2023-04-03T09:04:22;4.32;;;2.30;;
76380;SDS011;65202;52.520;10.528;2023-04-03T09:06:54;4.28;;;2.28;;
76380;SDS011;65202;52.520;10.528;2023-04-03T09:09:38;5.22;;;1.60;;
76380;SDS011;65202;52.520;10.528;2023-04-03T09:12:23;6.88;;;1.48;;
76380;SDS011;65202;52.520;10.528;2023-04-03T09:15:22;5.78;;;1.50;;
76380;SDS011;65202;52.520;10.528;2023-04-03T09:18:06;3.30;;;1.25;;
76380;SDS011;65202;52.520;10.528;2023-04-03T09:20:49;5.70;;;1.67;;
76380;SDS011;65202;52.520;10.528;2023-04-03T09:23:51;4.47;;;1.65;;
76380;SDS011;65202;52.520;10.528;2023-04-03T09:26:33;4.22;;;1.52;;
76380;SDS011;65202;52.520;10.528;2023-04-03T09:29:29;8.43;;;1.83;;
76380;SDS011;65202;52.520;10.528;2023-04-03T09:32:01;4.50;;;1.40;;
76380;SDS011;65202;52.520;10.528;2023-04-03T09:34:39;7.05;;;1.77;;
76380;SDS011;65202;52.520;10.528;2023-04-03T09:37:09;5.30;;;1.60;;
76380;SDS011;65202;52.520;10.528;2023-04-03T09:40:02;4.20;;;1.40;;
76380;SDS011;65202;52.520;10.528;2023-04-03T09:42:31;8.05;;;1.65;;
76380;SDS011;65202;52.520;10.528;2023-04-03T09:44:59;4.28;;;1.50;;
76380;SDS011;65202;52.520;10.528;2023-04-03T09:47:31;7.30;;;1.52;;
76380;SDS011;65202;52.520;10.528;2023-04-03T09:52:44;4.10;;;1.40;;
76380;SDS011;65202;52.520;10.528;2023-04-03T09:55:16;4.88;;;1.30;;
76380;SDS011;65202;52.520;10.528;2023-04-03T09:57:57;5.40;;;1.38;;
76380;SDS011;65202;52.520;10.528;2023-04-03T10:00:31;7.28;;;1.55;;
76380;SDS011;65202;52.520;10.528;2023-04-03T10:03:03;5.47;;;1.30;;
76380;SDS011;65202;52.520;10.528;2023-04-03T10:05:36;5.93;;;1.75;;
76380;SDS011;65202;52.520;10.528;2023-04-03T10:10:44;4.78;;;1.60;;
76380;SDS011;65202;52.520;10.528;2023-04-03T10:13:15;4.63;;;1.33;;
76380;SDS011;65202;52.520;10.528;2023-04-03T10:15:50;5.60;;;1.30;;
76380;SDS011;65202;52.520;10.528;2023-04-03T10:18:49;4.13;;;1.30;;
76380;SDS011;65202;52.520;10.528;2023-04-03T10:21:54;5.22;;;1.40;;
76380;SDS011;65202;52.520;10.528;2023-04-03T10:27:29;4.32;;;1.40;;
76380;SDS011;65202;52.520;10.528;2023-04-03T10:36:17;6.25;;;1.42;;
76380;SDS011;65202;52.520;10.528;2023-04-03T10:38:58;6.65;;;1.58;;
76380;SDS011;65202;52.520;10.528;2023-04-03T10:51:00;3.72;;;1.20;;
76380;SDS011;65202;52.520;10.528;2023-04-03T10:56:39;4.65;;;1.48;;
76380;SDS011;65202;52.520;10.528;2023-04-03T10:59:16;2.92;;;1.45;;
76380;SDS011;65202;52.520;10.528;2023-04-03T11:02:16;3.67;;;1.27;;
76380;SDS011;65202;52.520;10.528;2023-04-03T11:04:56;4.85;;;1.30;;
76380;SDS011;65202;52.520;10.528;2023-04-03T11:07:42;2.42;;;1.25;;
76380;SDS011;65202;52.520;10.528;2023-04-03T11:10:29;4.70;;;1.35;;
76380;SDS011;65202;52.520;10.528;2023-04-03T11:13:13;7.50;;;1.35;;
76380;SDS011;65202;52.520;10.528;2023-04-03T11:15:46;4.72;;;1.65;;
76380;SDS011;65202;52.520;10.528;2023-04-03T11:18:19;5.03;;;1.40;;
76380;SDS011;65202;52.520;10.528;2023-04-03T11:21:01;2.80;;;1.30;;
76380;SDS011;65202;52.520;10.528;2023-04-03T11:23:42;4.60;;;1.42;;
76380;SDS011;65202;52.520;10.528;2023-04-03T11:26:19;4.55;;;1.38;;
76380;SDS011;65202;52.520;10.528;2023-04-03T11:28:59;4.25;;;1.40;;
76380;SDS011;65202;52.520;10.528;2023-04-03T11:37:38;4.50;;;1.50;;
76380;SDS011;65202;52.520;10.528;2023-04-03T11:42:42;5.18;;;1.40;;
76380;SDS011;65202;52.520;10.528;2023-04-03T11:50:30;2.78;;;1.10;;
76380;SDS011;65202;52.520;10.528;2023-04-03T11:58:25;6.18;;;1.48;;
76380;SDS011;65202;52.520;10.528;2023-04-03T12:26:44;5.32;;;1.85;;
76380;SDS011;65202;52.520;10.528;2023-04-03T12:38:19;6.72;;;1.92;;
76380;SDS011;65202;52.520;10.528;2023-04-03T12:44:37;4.55;;;1.33;;
76380;SDS011;65202;52.520;10.528;2023-04-03T12:46:53;5.05;;;1.30;;
76380;SDS011;65202;52.520;10.528;2023-04-03T12:49:33;3.28;;;1.23;;
76380;SDS011;65202;52.520;10.528;2023-04-03T12:52:16;3.72;;;1.10;;
76380;SDS011;65202;52.520;10.528;2023-04-03T12:54:59;3.10;;;1.30;;
76380;SDS011;65202;52.520;10.528;2023-04-03T12:57:30;4.90;;;1.35;;
76380;SDS011;65202;52.520;10.528;2023-04-03T12:59:59;3.75;;;1.45;;
76380;SDS011;65202;52.520;10.528;2023-04-03T13:02:28;4.50;;;1.20;;
76380;SDS011;65202;52.520;10.528;2023-04-03T13:05:07;4.07;;;1.50;;
76380;SDS011;65202;52.520;10.528;2023-04-03T13:07:43;3.88;;;1.42;;
76380;SDS011;65202;52.520;10.528;2023-04-03T13:10:16;4.30;;;1.40;;
76380;SDS011;65202;52.520;10.528;2023-04-03T13:12:52;4.75;;;1.70;;
76380;SDS011;65202;52.520;10.528;2023-04-03T13:15:42;4.38;;;1.42;;
76380;SDS011;65202;52.520;10.528;2023-04-03T13:18:31;4.65;;;1.83;;
76380;SDS011;65202;52.520;10.528;2023-04-03T13:21:20;6.45;;;1.48;;
76380;SDS011;65202;52.520;10.528;2023-04-03T13:23:52;5.78;;;1.45;;
76380;SDS011;65202;52.520;10.528;2023-04-03T13:26:41;4.43;;;1.30;;
76380;SDS011;65202;52.520;10.528;2023-04-03T13:29:19;2.72;;;1.20;;
76380;SDS011;65202;52.520;10.528;2023-04-03T13:31:58;6.25;;;1.73;;
76380;SDS011;65202;52.520;10.528;2023-04-03T13:34:29;5.03;;;1.45;;
76380;SDS011;65202;52.520;10.528;2023-04-03T13:37:22;3.20;;;1.30;;
76380;SDS011;65202;52.520;10.528;2023-04-03T13:40:01;3.10;;;1.50;;
76380;SDS011;65202;52.520;10.528;2023-04-03T13:42:37;5.18;;;1.50;;
76380;SDS011;65202;52.520;10.528;2023-04-03T13:47:41;7.43;;;1.50;;
76380;SDS011;65202;52.520;10.528;2023-04-03T13:52:49;5.00;;;1.40;;
76380;SDS011;65202;52.520;10.528;2023-04-03T13:55:31;7.30;;;1.60;;
76380;SDS011;65202;52.520;10.528;2023-04-03T14:03:16;1.88;;;1.02;;
76380;SDS011;65202;52.520;10.528;2023-04-03T14:06:12;3.72;;;1.52;;
76380;SDS011;65202;52.520;10.528;2023-04-03T14:08:43;4.53;;;1.40;;
76380;SDS011;65202;52.520;10.528;2023-04-03T14:11:16;5.57;;;1.55;;
76380;SDS011;65202;52.520;10.528;2023-04-03T14:13:50;4.10;;;1.40;;
76380;SDS011;65202;52.520;10.528;2023-04-03T14:16:19;4.40;;;1.60;;
76380;SDS011;65202;52.520;10.528;2023-04-03T14:18:50;4.80;;;1.70;;
76380;SDS011;65202;52.520;10.528;2023-04-03T14:21:19;4.65;;;1.65;;
76380;SDS011;65202;52.520;10.528;2023-04-03T14:23:48;3.58;;;1.40;;
76380;SDS011;65202;52.520;10.528;2023-04-03T14:26:17;5.90;;;1.33;;
76380;SDS011;65202;52.520;10.528;2023-04-03T14:28:48;4.82;;;1.83;;
76380;SDS011;65202;52.520;10.528;2023-04-03T14:31:20;3.90;;;1.43;;
76380;SDS011;65202;52.520;10.528;2023-04-03T14:33:48;6.95;;;1.70;;
76380;SDS011;65202;52.520;10.528;2023-04-03T14:36:26;4.65;;;1.27;;
76380;SDS011;65202;52.520;10.528;2023-04-03T14:38:55;4.28;;;1.40;;
76380;SDS011;65202;52.520;10.528;2023-04-03T14:41:25;6.85;;;1.48;;
76380;SDS011;65202;52.520;10.528;2023-04-03T14:43:53;3.83;;;1.30;;
76380;SDS011;65202;52.520;10.528;2023-04-03T14:46:26;3.92;;;1.40;;
76380;SDS011;65202;52.520;10.528;2023-04-03T14:49:24;5.30;;;1.67;;
76380;SDS011;65202;52.520;10.528;2023-04-03T14:51:56;7.07;;;1.40;;
76380;SDS011;65202;52.520;10.528;2023-04-03T14:54:24;3.30;;;1.10;;
76380;SDS011;65202;52.520;10.528;2023-04-03T14:56:55;4.93;;;1.50;;
76380;SDS011;65202;52.520;10.528;2023-04-03T14:59:24;2.83;;;1.25;;
76380;SDS011;65202;52.520;10.528;2023-04-03T15:01:53;4.85;;;1.55;;
76380;SDS011;65202;52.520;10.528;2023-04-03T15:04:20;6.00;;;1.77;;
76380;SDS011;65202;52.520;10.528;2023-04-03T15:06:48;3.40;;;1.42;;
76380;SDS011;65202;52.520;10.528;2023-04-03T15:09:19;3.70;;;1.30;;
76380;SDS011;65202;52.520;10.528;2023-04-03T15:11:50;5.90;;;1.45;;
76380;SDS011;65202;52.520;10.528;2023-04-03T15:14:21;3.55;;;1.40;;
76380;SDS011;65202;52.520;10.528;2023-04-03T15:17:06;5.93;;;1.50;;
76380;SDS011;65202;52.520;10.528;2023-04-03T15:19:43;3.90;;;1.42;;
76380;SDS011;65202;52.520;10.528;2023-04-03T15:22:15;5.38;;;1.50;;
76380;SDS011;65202;52.520;10.528;2023-04-03T15:24:45;9.10;;;1.25;;
76380;SDS011;65202;52.520;10.528;2023-04-03T15:27:13;3.67;;;1.30;;
76380;SDS011;65202;52.520;10.528;2023-04-03T15:29:42;4.10;;;1.38;;
76380;SDS011;65202;52.520;10.528;2023-04-03T15:32:12;2.55;;;1.20;;
76380;SDS011;65202;52.520;10.528;2023-04-03T15:34:40;3.70;;;1.50;;
76380;SDS011;65202;52.520;10.528;2023-04-03T15:37:07;5.90;;;1.77;;
76380;SDS011;65202;52.520;10.528;2023-04-03T15:39:34;2.85;;;1.13;;
76380;SDS011;65202;52.520;10.528;2023-04-03T15:42:02;4.60;;;1.33;;
76380;SDS011;65202;52.520;10.528;2023-04-03T15:44:33;5.70;;;1.50;;
76380;SDS011;65202;52.520;10.528;2023-04-03T15:47:01;4.97;;;1.30;;
76380;SDS011;65202;52.520;10.528;2023-04-03T15:49:29;2.63;;;1.23;;
76380;SDS011;65202;52.520;10.528;2023-04-03T15:51:59;4.70;;;1.40;;
76380;SDS011;65202;52.520;10.528;2023-04-03T15:54:27;4.30;;;1.42;;
76380;SDS011;65202;52.520;10.528;2023-04-03T15:56:56;4.65;;;1.60;;
76380;SDS011;65202;52.520;10.528;2023-04-03T15:59:23;4.72;;;1.58;;
76380;SDS011;65202;52.520;10.528;2023-04-03T16:01:51;4.65;;;1.40;;
76380;SDS011;65202;52.520;10.528;2023-04-03T16:04:19;5.25;;;1.50;;
76380;SDS011;65202;52.520;10.528;2023-04-03T16:06:48;3.28;;;1.25;;
76380;SDS011;65202;52.520;10.528;2023-04-03T16:09:16;6.15;;;1.73;;
76380;SDS011;65202;52.520;10.528;2023-04-03T16:11:44;4.28;;;1.98;;
76380;SDS011;65202;52.520;10.528;2023-04-03T16:14:11;4.07;;;1.40;;
76380;SDS011;65202;52.520;10.528;2023-04-03T16:16:38;4.15;;;1.50;;
76380;SDS011;65202;52.520;10.528;2023-04-03T16:19:06;9.20;;;2.10;;
76380;SDS011;65202;52.520;10.528;2023-04-03T16:21:37;4.07;;;1.40;;
76380;SDS011;65202;52.520;10.528;2023-04-03T16:24:04;3.45;;;1.50;;
76380;SDS011;65202;52.520;10.528;2023-04-03T16:26:32;5.22;;;1.70;;
76380;SDS011;65202;52.520;10.528;2023-04-03T16:29:00;4.82;;;1.30;;
76380;SDS011;65202;52.520;10.528;2023-04-03T16:31:27;4.80;;;1.75;;
76380;SDS011;65202;52.520;10.528;2023-04-03T16:33:55;5.28;;;1.40;;
76380;SDS011;65202;52.520;10.528;2023-04-03T16:36:23;3.80;;;1.40;;
76380;SDS011;65202;52.520;10.528;2023-04-03T16:38:52;6.38;;;2.40;;
76380;SDS011;65202;52.520;10.528;2023-04-03T16:41:19;6.20;;;1.55;;
76380;SDS011;65202;52.520;10.528;2023-04-03T16:43:47;4.70;;;1.50;;
76380;SDS011;65202;52.520;10.528;2023-04-03T16:46:14;4.90;;;1.60;;